createdAt,value
2022-12-25T00:01:33.456Z,68.80
2022-12-25T00:04:00.763Z,53.80
2022-12-25T00:06:28.377Z,60.40
2022-12-25T00:08:55.512Z,58.00
2022-12-25T00:11:22.700Z,66.40
2022-12-25T00:13:50.159Z,49.38
2022-12-25T00:16:26.305Z,58.13
2022-12-25T00:18:55.910Z,59.67
2022-12-25T00:21:23.341Z,53.83
2022-12-25T00:23:56.038Z,60.55
2022-12-25T00:26:25.042Z,55.63
2022-12-25T00:28:57.648Z,54.23
2022-12-25T00:31:26.115Z,61.10
2022-12-25T00:33:53.769Z,51.95
2022-12-25T00:36:23.638Z,49.47
2022-12-25T00:38:50.876Z,53.95
2022-12-25T00:41:42.167Z,47.97
2022-12-25T00:44:13.402Z,59.05
2022-12-25T00:46:42.339Z,54.67
2022-12-25T00:49:10.499Z,50.95
2022-12-25T00:51:37.843Z,53.95
2022-12-25T00:54:04.916Z,46.13
2022-12-25T00:56:32.079Z,45.38
2022-12-25T00:58:59.211Z,48.22
2022-12-25T01:01:26.447Z,53.65
2022-12-25T01:03:53.697Z,54.40
2022-12-25T01:06:20.752Z,48.97
2022-12-25T01:09:06.512Z,49.45
2022-12-25T01:11:33.826Z,51.85
2022-12-25T01:14:00.953Z,53.28
2022-12-25T01:16:28.648Z,42.67
2022-12-25T01:18:56.138Z,44.70
2022-12-25T01:21:24.141Z,49.17
2022-12-25T01:23:52.927Z,53.88
2022-12-25T01:26:24.364Z,54.03
2022-12-25T01:28:51.753Z,39.40
2022-12-25T01:31:22.297Z,51.23
2022-12-25T01:33:49.929Z,39.90
2022-12-25T01:36:23.860Z,46.83
2022-12-25T01:38:52.712Z,46.35
2022-12-25T01:41:23.161Z,40.65
2022-12-25T01:44:07.810Z,39.73
2022-12-25T01:46:36.797Z,45.88
2022-12-25T01:49:25.498Z,47.30
2022-12-25T01:52:10.628Z,38.10
2022-12-25T01:54:48.059Z,58.38
2022-12-25T01:57:29.530Z,40.57
2022-12-25T01:59:59.473Z,43.22
2022-12-25T02:02:28.581Z,46.72
2022-12-25T02:05:38.560Z,37.90
2022-12-25T02:08:10.413Z,44.45
2022-12-25T02:10:39.126Z,33.07
2022-12-25T02:13:08.088Z,45.58
2022-12-25T02:16:13.366Z,37.40
2022-12-25T02:19:24.362Z,36.35
2022-12-25T02:23:03.620Z,40.33
2022-12-25T02:26:26.779Z,32.87
2022-12-25T02:29:52.218Z,42.50
2022-12-25T02:32:33.974Z,45.00
2022-12-25T02:35:07.522Z,39.55
2022-12-25T02:37:51.681Z,35.80
2022-12-25T02:40:41.379Z,39.67
2022-12-25T02:44:00.201Z,39.60
2022-12-25T02:46:49.353Z,48.72
2022-12-25T02:49:42.628Z,47.80
2022-12-25T02:52:35.798Z,47.53
2022-12-25T02:55:33.103Z,53.60
2022-12-25T02:58:24.593Z,43.78
2022-12-25T03:01:20.408Z,42.88
2022-12-25T03:04:09.689Z,40.10
2022-12-25T03:06:45.705Z,41.60
2022-12-25T03:09:51.744Z,55.07
2022-12-25T03:12:39.459Z,46.58
2022-12-25T03:15:27.678Z,44.65
2022-12-25T03:17:58.949Z,36.10
2022-12-25T03:20:44.982Z,45.63
2022-12-25T03:23:34.638Z,42.60
2022-12-25T03:26:20.509Z,35.90
2022-12-25T03:28:47.613Z,46.90
2022-12-25T03:31:43.925Z,51.85
2022-12-25T03:35:23.190Z,41.78
2022-12-25T03:38:52.222Z,39.70
2022-12-25T03:41:59.939Z,36.63
2022-12-25T03:44:53.872Z,46.67
2022-12-25T03:47:52.325Z,49.95
2022-12-25T03:50:45.234Z,49.90
2022-12-25T03:53:43.762Z,36.97
2022-12-25T03:56:31.761Z,36.55
2022-12-25T03:59:23.532Z,50.35
2022-12-25T04:02:11.076Z,44.10
2022-12-25T04:04:57.177Z,43.85
2022-12-25T04:07:43.057Z,45.53
2022-12-25T04:10:29.150Z,35.28
2022-12-25T04:13:15.114Z,36.17
2022-12-25T04:16:00.937Z,39.60
2022-12-25T04:18:46.688Z,42.33
2022-12-25T04:21:32.381Z,38.07
2022-12-25T04:24:18.181Z,36.08
2022-12-25T04:27:03.918Z,38.33
2022-12-25T04:29:49.813Z,32.03
2022-12-25T04:32:35.898Z,38.35
2022-12-25T04:35:21.492Z,27.63
2022-12-25T04:37:48.598Z,30.75
2022-12-25T04:40:15.859Z,32.65
2022-12-25T04:42:42.942Z,35.85
2022-12-25T04:45:10.805Z,39.15
2022-12-25T04:47:38.076Z,32.97
2022-12-25T04:50:06.033Z,36.78
2022-12-25T04:52:41.282Z,33.72
2022-12-25T04:55:10.026Z,40.20
2022-12-25T04:57:37.301Z,44.47
2022-12-25T05:00:06.757Z,33.70
2022-12-25T05:02:34.097Z,36.17
2022-12-25T05:05:01.383Z,34.25
2022-12-25T05:07:28.551Z,32.22
2022-12-25T05:09:55.629Z,35.85
2022-12-25T05:12:22.770Z,30.77
2022-12-25T05:14:49.818Z,34.83
2022-12-25T05:17:16.867Z,32.17
2022-12-25T05:19:44.020Z,30.50
2022-12-25T05:22:11.181Z,27.98
2022-12-25T05:24:38.478Z,34.20
2022-12-25T05:27:05.581Z,30.75
2022-12-25T05:29:32.642Z,33.13
2022-12-25T05:31:59.735Z,38.17
2022-12-25T05:34:26.788Z,30.55
2022-12-25T05:36:53.844Z,23.83
2022-12-25T05:39:20.998Z,28.65
2022-12-25T05:41:48.196Z,28.23
2022-12-25T05:44:15.340Z,37.60
2022-12-25T05:46:42.475Z,32.15
2022-12-25T05:49:09.730Z,33.17
2022-12-25T05:51:36.910Z,27.73
2022-12-25T05:54:04.323Z,30.02
2022-12-25T05:56:31.472Z,25.75
2022-12-25T05:58:58.518Z,30.08
2022-12-25T06:01:28.649Z,23.03
2022-12-25T06:03:57.528Z,28.73
2022-12-25T06:06:24.897Z,37.85
2022-12-25T06:08:55.071Z,24.70
2022-12-25T06:11:22.518Z,26.77
2022-12-25T06:13:51.795Z,33.47
2022-12-25T06:16:19.582Z,29.33
2022-12-25T06:18:52.043Z,23.63
2022-12-25T06:21:19.373Z,26.30
2022-12-25T06:23:46.726Z,23.13
2022-12-25T06:26:17.788Z,25.00
2022-12-25T06:28:45.533Z,29.02
2022-12-25T06:31:16.939Z,24.45
2022-12-25T06:33:44.474Z,17.45
2022-12-25T06:36:21.193Z,25.00
2022-12-25T06:38:48.694Z,23.83
2022-12-25T06:41:22.494Z,24.30
2022-12-25T06:43:52.388Z,22.67
2022-12-25T06:46:21.185Z,23.70
2022-12-25T06:48:49.759Z,25.38
2022-12-25T06:51:19.480Z,22.67
2022-12-25T06:53:48.202Z,20.00
2022-12-25T06:56:19.987Z,24.85
2022-12-25T06:58:50.381Z,18.45
2022-12-25T07:01:46.893Z,22.38
2022-12-25T07:04:24.375Z,18.73
2022-12-25T07:06:51.585Z,16.77
2022-12-25T07:09:18.688Z,17.70
2022-12-25T07:11:45.797Z,15.32
2022-12-25T07:14:24.458Z,21.52
2022-12-25T07:16:52.216Z,19.43
2022-12-25T07:19:19.484Z,20.05
2022-12-25T07:21:47.209Z,16.45
2022-12-25T07:24:21.968Z,20.27
2022-12-25T07:26:50.812Z,20.75
2022-12-25T07:29:19.528Z,18.27
2022-12-25T07:31:46.904Z,17.50
2022-12-25T07:34:13.985Z,14.48
2022-12-25T07:36:41.090Z,19.77
2022-12-25T07:39:10.383Z,17.17
2022-12-25T07:41:37.731Z,14.77
2022-12-25T07:44:15.226Z,15.73
2022-12-25T07:46:42.911Z,15.30
2022-12-25T07:49:11.215Z,20.13
2022-12-25T07:51:38.586Z,17.35
2022-12-25T07:54:05.765Z,14.43
2022-12-25T07:56:33.418Z,14.98
2022-12-25T07:59:00.494Z,14.23
2022-12-25T08:01:28.548Z,16.63
2022-12-25T08:04:01.355Z,16.90
2022-12-25T08:06:34.864Z,17.67
2022-12-25T08:09:13.219Z,17.50
2022-12-25T08:11:44.513Z,17.05
2022-12-25T08:14:11.591Z,16.17
2022-12-25T08:16:42.261Z,15.52
2022-12-25T08:19:10.117Z,13.03
2022-12-25T08:21:38.073Z,18.40
2022-12-25T08:24:05.493Z,14.05
2022-12-25T08:26:32.601Z,13.57
2022-12-25T08:28:59.704Z,15.88
2022-12-25T08:31:29.591Z,14.80
2022-12-25T08:33:58.675Z,13.93
2022-12-25T08:36:26.140Z,18.75
2022-12-25T08:38:58.561Z,12.98
2022-12-25T08:41:29.490Z,14.05
2022-12-25T08:43:56.573Z,16.03
2022-12-25T08:46:24.370Z,18.40
2022-12-25T08:48:51.600Z,23.75
2022-12-25T08:51:22.053Z,14.98
2022-12-25T08:53:50.982Z,21.77
2022-12-25T08:56:19.184Z,19.40
2022-12-25T08:58:47.018Z,22.23
2022-12-25T09:01:14.471Z,20.60
2022-12-25T09:03:42.867Z,18.60
2022-12-25T09:06:14.405Z,20.20
2022-12-25T09:08:48.123Z,14.93
2022-12-25T09:11:18.763Z,16.40
2022-12-25T09:13:46.317Z,14.18
2022-12-25T09:16:18.096Z,16.77
2022-12-25T09:18:45.261Z,20.75
2022-12-25T09:21:14.585Z,13.90
2022-12-25T09:23:41.912Z,11.40
2022-12-25T09:26:13.966Z,13.65
2022-12-25T09:28:46.575Z,11.63
2022-12-25T09:31:17.631Z,15.25
2022-12-25T09:33:44.752Z,49.93
2022-12-25T09:36:12.104Z,20.17
2022-12-25T09:38:39.383Z,14.77
2022-12-25T09:41:31.907Z,21.25
2022-12-25T09:44:11.429Z,18.10
2022-12-25T09:46:47.811Z,14.03
2022-12-25T09:49:30.147Z,13.95
2022-12-25T09:52:11.158Z,12.02
2022-12-25T09:55:20.705Z,14.27
2022-12-25T09:57:56.085Z,13.70
2022-12-25T10:00:34.767Z,14.47
2022-12-25T10:03:35.643Z,13.07
2022-12-25T10:06:22.698Z,16.02
2022-12-25T10:08:56.625Z,14.50
2022-12-25T10:11:55.945Z,18.30
2022-12-25T10:14:34.129Z,17.23
2022-12-25T10:17:05.039Z,13.55
2022-12-25T10:19:49.715Z,14.63
2022-12-25T10:22:50.835Z,16.00
2022-12-25T10:25:22.729Z,19.25
2022-12-25T10:28:12.038Z,18.53
2022-12-25T10:30:43.023Z,14.45
2022-12-25T10:33:16.867Z,20.02
2022-12-25T10:35:45.570Z,14.38
2022-12-25T10:38:19.535Z,18.85
2022-12-25T10:41:19.629Z,22.20
2022-12-25T10:43:54.004Z,18.70
2022-12-25T10:46:24.687Z,21.73
2022-12-25T10:48:59.760Z,18.90
2022-12-25T10:51:33.895Z,24.48
2022-12-25T10:54:17.476Z,18.23
2022-12-25T10:56:58.504Z,21.90
2022-12-25T10:59:27.811Z,29.65
2022-12-25T11:01:57.154Z,31.92
2022-12-25T11:04:28.745Z,25.48
2022-12-25T11:07:19.840Z,23.50
2022-12-25T11:10:05.770Z,19.42
2022-12-25T11:12:42.757Z,20.35
2022-12-25T11:15:40.916Z,28.13
2022-12-25T11:18:28.599Z,20.92
2022-12-25T11:20:59.762Z,20.47
2022-12-25T11:23:30.612Z,18.92
2022-12-25T11:26:08.237Z,32.80
2022-12-25T11:28:39.213Z,32.85
2022-12-25T11:31:12.863Z,26.20
2022-12-25T11:33:47.653Z,37.80
2022-12-25T11:36:44.640Z,33.47
2022-12-25T11:39:37.510Z,27.48
2022-12-25T11:42:37.395Z,23.08
2022-12-25T11:45:28.407Z,38.22
2022-12-25T11:48:07.461Z,28.97
2022-12-25T11:50:45.853Z,24.27
2022-12-25T11:53:48.590Z,24.95
2022-12-25T11:56:22.625Z,60.67
2022-12-25T11:58:53.248Z,46.33
2022-12-25T12:01:43.100Z,64.93
2022-12-25T12:04:42.921Z,35.38
2022-12-25T12:07:29.258Z,26.83
2022-12-25T12:10:31.402Z,23.85
2022-12-25T12:13:47.685Z,27.60
2022-12-25T12:16:14.949Z,21.40
2022-12-25T12:18:48.075Z,26.80
2022-12-25T12:21:18.271Z,20.98
2022-12-25T12:23:55.941Z,25.77
2022-12-25T12:26:29.580Z,28.35
2022-12-25T12:29:03.608Z,19.10
2022-12-25T12:31:42.031Z,17.58
2022-12-25T12:34:24.029Z,22.88
2022-12-25T12:36:56.778Z,22.10
2022-12-25T12:39:37.013Z,24.00
2022-12-25T12:42:15.516Z,28.80
2022-12-25T12:44:43.186Z,23.75
2022-12-25T12:47:31.411Z,34.72
2022-12-25T12:50:01.194Z,30.52
2022-12-25T12:52:38.162Z,25.75
2022-12-25T12:55:13.108Z,29.23
2022-12-25T12:57:41.429Z,34.05
2022-12-25T13:00:19.464Z,31.10
2022-12-25T13:02:52.673Z,24.98
2022-12-25T13:05:39.553Z,24.17
2022-12-25T13:08:40.853Z,28.03
2022-12-25T13:11:24.298Z,29.90
2022-12-25T13:13:54.944Z,34.20
2022-12-25T13:16:33.398Z,27.00
2022-12-25T13:19:10.897Z,31.88
2022-12-25T13:21:38.164Z,44.17
2022-12-25T13:24:18.179Z,31.08
2022-12-25T13:26:45.353Z,52.90
2022-12-25T13:29:34.579Z,36.45
2022-12-25T13:32:04.755Z,31.10
2022-12-25T13:34:38.672Z,34.73
2022-12-25T13:37:15.186Z,33.25
2022-12-25T13:39:56.766Z,30.38
2022-12-25T13:42:31.849Z,32.88
2022-12-25T13:45:15.525Z,41.88
2022-12-25T13:47:48.696Z,33.00
2022-12-25T13:50:31.835Z,39.20
2022-12-25T13:53:13.174Z,36.63
2022-12-25T13:55:42.584Z,33.17
2022-12-25T13:58:31.489Z,36.45
2022-12-25T14:01:00.797Z,27.80
2022-12-25T14:03:40.729Z,27.73
2022-12-25T14:06:16.842Z,67.93
2022-12-25T14:08:44.998Z,31.17
2022-12-25T14:11:16.322Z,31.70
2022-12-25T14:13:47.161Z,45.60
2022-12-25T14:16:18.786Z,28.73
2022-12-25T14:19:01.574Z,37.15
2022-12-25T14:21:34.518Z,37.05
2022-12-25T14:24:01.947Z,26.60
2022-12-25T14:26:32.595Z,26.87
2022-12-25T14:29:05.649Z,33.65
2022-12-25T14:31:34.204Z,28.65
2022-12-25T14:34:04.397Z,36.05
2022-12-25T14:36:32.911Z,33.97
2022-12-25T14:39:04.165Z,33.83
2022-12-25T14:41:38.183Z,31.30
2022-12-25T14:44:29.561Z,29.95
2022-12-25T14:47:11.635Z,31.88
2022-12-25T14:49:39.231Z,35.70
2022-12-25T14:52:21.778Z,45.53
2022-12-25T14:54:54.112Z,36.13
2022-12-25T14:57:41.086Z,31.10
2022-12-25T15:00:43.833Z,39.90
2022-12-25T15:03:43.986Z,60.85
2022-12-25T15:06:24.775Z,105.47
2022-12-25T15:09:01.261Z,56.75
2022-12-25T15:11:29.613Z,44.13
2022-12-25T15:13:57.056Z,57.47
2022-12-25T15:16:31.303Z,90.25
2022-12-25T15:19:00.864Z,136.77
2022-12-25T15:21:34.687Z,141.27
2022-12-25T15:24:02.395Z,101.65
2022-12-25T15:26:31.755Z,64.53
2022-12-25T15:28:59.243Z,67.35
2022-12-25T15:31:30.923Z,48.27
2022-12-25T15:34:01.160Z,42.95
2022-12-25T15:36:29.015Z,39.45
2022-12-25T15:38:56.459Z,41.00
2022-12-25T15:41:50.203Z,46.53
2022-12-25T15:44:17.720Z,38.03
2022-12-25T15:46:46.064Z,47.30
2022-12-25T15:49:14.468Z,39.00
2022-12-25T15:51:42.873Z,41.83
2022-12-25T15:54:10.541Z,61.15
2022-12-25T15:56:53.984Z,65.77
2022-12-25T15:59:22.107Z,45.58
2022-12-25T16:01:53.302Z,35.80
2022-12-25T16:04:22.328Z,32.60
2022-12-25T16:06:50.981Z,43.00
2022-12-25T16:09:22.902Z,37.77
2022-12-25T16:11:50.552Z,39.30
2022-12-25T16:14:19.764Z,41.58
2022-12-25T16:16:47.000Z,100.50
2022-12-25T16:19:14.161Z,147.23
2022-12-25T16:21:46.171Z,43.60
2022-12-25T16:24:14.055Z,37.35
2022-12-25T16:26:41.669Z,30.75
2022-12-25T16:29:09.148Z,43.65
2022-12-25T16:31:38.594Z,48.33
2022-12-25T16:34:07.676Z,48.10
2022-12-25T16:36:36.088Z,76.60
2022-12-25T16:39:04.687Z,81.72
2022-12-25T16:41:32.626Z,65.65
2022-12-25T16:44:03.001Z,51.97
2022-12-25T16:46:30.085Z,52.80
2022-12-25T16:48:57.493Z,40.78
2022-12-25T16:51:24.644Z,128.90
2022-12-25T16:53:53.195Z,50.53
2022-12-25T16:56:20.717Z,47.92
2022-12-25T16:58:48.447Z,233.07
2022-12-25T17:01:19.853Z,71.07
2022-12-25T17:03:47.788Z,76.10
2022-12-25T17:06:26.859Z,52.35
2022-12-25T17:08:58.772Z,64.55
2022-12-25T17:11:32.639Z,49.97
2022-12-25T17:14:03.558Z,46.58
2022-12-25T17:16:33.948Z,57.00
2022-12-25T17:19:05.172Z,50.88
2022-12-25T17:21:34.166Z,49.13
2022-12-25T17:24:04.020Z,160.97
2022-12-25T17:26:32.572Z,56.92
2022-12-25T17:28:59.888Z,69.07
2022-12-25T17:31:27.202Z,161.15
2022-12-25T17:33:54.682Z,134.25
2022-12-25T17:36:22.690Z,130.97
2022-12-25T17:38:49.999Z,99.20
2022-12-25T17:41:19.426Z,150.05
2022-12-25T17:43:47.112Z,195.55
2022-12-25T17:46:19.856Z,156.00
2022-12-25T17:48:47.573Z,192.77
2022-12-25T17:51:17.022Z,262.35
2022-12-25T17:53:47.370Z,182.73
2022-12-25T17:56:15.818Z,221.20
2022-12-25T17:58:43.973Z,126.95
2022-12-25T18:01:16.418Z,187.70
2022-12-25T18:03:45.559Z,133.90
2022-12-25T18:06:17.041Z,222.25
2022-12-25T18:08:46.557Z,124.57
2022-12-25T18:11:20.718Z,210.57
2022-12-25T18:13:52.040Z,164.33
2022-12-25T18:16:23.450Z,256.25
2022-12-25T18:18:52.711Z,190.57
2022-12-25T18:21:22.679Z,68.45
2022-12-25T18:23:50.524Z,267.33
2022-12-25T18:26:18.736Z,276.50
2022-12-25T18:28:46.199Z,161.38
2022-12-25T18:31:24.475Z,220.35
2022-12-25T18:33:51.736Z,130.88
2022-12-25T18:36:26.804Z,290.23
2022-12-25T18:38:55.041Z,266.43
2022-12-25T18:41:23.280Z,111.25
2022-12-25T18:43:54.011Z,201.00
2022-12-25T18:46:27.390Z,293.35
2022-12-25T18:48:56.546Z,136.52
2022-12-25T18:51:24.470Z,121.23
2022-12-25T18:53:51.906Z,110.07
2022-12-25T18:56:20.283Z,218.57
2022-12-25T18:58:47.819Z,185.77
2022-12-25T19:01:21.548Z,114.28
2022-12-25T19:03:50.527Z,91.63
2022-12-25T19:06:25.529Z,255.13
2022-12-25T19:08:54.363Z,259.65
2022-12-25T19:11:23.327Z,169.27
2022-12-25T19:13:50.564Z,318.77
2022-12-25T19:16:18.134Z,164.63
2022-12-25T19:18:46.162Z,252.55
2022-12-25T19:21:13.305Z,227.70
2022-12-25T19:23:40.913Z,252.77
2022-12-25T19:26:10.002Z,367.73
2022-12-25T19:28:39.268Z,360.67
2022-12-25T19:31:08.392Z,372.20
2022-12-25T19:33:41.414Z,385.38
2022-12-25T19:36:14.711Z,297.35
2022-12-25T19:38:42.670Z,287.70
2022-12-25T19:41:18.538Z,216.53
2022-12-25T19:43:48.312Z,385.00
2022-12-25T19:46:22.058Z,255.95
2022-12-25T19:48:49.659Z,210.68
2022-12-25T19:51:26.795Z,402.52
2022-12-25T19:53:56.204Z,111.13
2022-12-25T19:56:25.107Z,141.27
2022-12-25T19:58:52.222Z,229.15
2022-12-25T20:01:22.277Z,85.43
2022-12-25T20:03:49.915Z,234.05
2022-12-25T20:06:25.828Z,271.00
2022-12-25T20:08:57.226Z,119.13
2022-12-25T20:11:27.113Z,102.00
2022-12-25T20:13:55.513Z,124.80
2022-12-25T20:16:23.913Z,142.70
2022-12-25T20:18:51.920Z,65.30
2022-12-25T20:21:21.731Z,103.93
2022-12-25T20:23:51.528Z,86.47
2022-12-25T20:26:21.930Z,103.53
2022-12-25T20:28:49.397Z,56.03
2022-12-25T20:31:29.575Z,119.63
2022-12-25T20:33:59.709Z,75.03
2022-12-25T20:36:32.591Z,177.75
2022-12-25T20:39:04.374Z,94.47
2022-12-25T20:41:32.096Z,96.63
2022-12-25T20:43:59.891Z,113.33
2022-12-25T20:46:27.349Z,169.43
2022-12-25T20:48:54.952Z,108.05
2022-12-25T20:51:25.183Z,85.13
2022-12-25T20:53:52.614Z,120.93
2022-12-25T20:56:22.869Z,58.67
2022-12-25T20:58:58.604Z,97.30
2022-12-25T21:01:27.275Z,114.20
2022-12-25T21:03:55.098Z,82.57
2022-12-25T21:06:23.489Z,101.70
2022-12-25T21:08:50.717Z,97.17
2022-12-25T21:11:18.070Z,108.13
2022-12-25T21:13:47.094Z,71.00
2022-12-25T21:16:22.018Z,108.38
2022-12-25T21:18:52.260Z,181.95
2022-12-25T21:21:20.090Z,202.13
2022-12-25T21:23:47.748Z,108.38
2022-12-25T21:26:31.384Z,235.15
2022-12-25T21:29:01.299Z,92.18
2022-12-25T21:31:29.931Z,77.85
2022-12-25T21:33:57.730Z,134.37
2022-12-25T21:36:33.842Z,184.35
2022-12-25T21:39:07.840Z,179.02
2022-12-25T21:41:38.242Z,103.25
2022-12-25T21:44:06.890Z,104.35
2022-12-25T21:46:34.496Z,111.57
2022-12-25T21:49:02.628Z,190.25
2022-12-25T21:51:53.100Z,103.30
2022-12-25T21:54:40.663Z,100.65
2022-12-25T21:57:07.799Z,84.95
2022-12-25T21:59:34.851Z,94.97
2022-12-25T22:02:02.026Z,103.75
2022-12-25T22:04:29.311Z,191.45
2022-12-25T22:07:14.806Z,105.47
2022-12-25T22:09:47.696Z,134.40
2022-12-25T22:12:35.411Z,97.30
2022-12-25T22:15:07.307Z,240.20
2022-12-25T22:17:59.705Z,165.52
2022-12-25T22:20:35.910Z,166.50
2022-12-25T22:23:03.588Z,243.43
2022-12-25T22:25:31.045Z,136.63
2022-12-25T22:27:58.139Z,96.97
2022-12-25T22:30:28.880Z,102.13
2022-12-25T22:32:57.097Z,190.32
2022-12-25T22:35:24.527Z,85.43
2022-12-25T22:37:53.313Z,72.57
2022-12-25T22:40:22.810Z,111.03
2022-12-25T22:42:50.710Z,66.90
2022-12-25T22:45:18.035Z,81.57
2022-12-25T22:47:45.186Z,64.78
2022-12-25T22:50:14.987Z,61.13
2022-12-25T22:52:42.827Z,79.80
2022-12-25T22:55:10.343Z,100.07
2022-12-25T22:57:37.623Z,78.68
2022-12-25T23:00:08.658Z,72.38
2022-12-25T23:02:35.961Z,113.50
2022-12-25T23:05:03.941Z,71.93
2022-12-25T23:07:31.100Z,95.47
2022-12-25T23:09:58.393Z,73.45
2022-12-25T23:12:44.361Z,54.50
2022-12-25T23:15:11.579Z,57.13
2022-12-25T23:17:57.246Z,65.63
2022-12-25T23:20:43.030Z,42.10
2022-12-25T23:23:34.827Z,55.40
2022-12-25T23:26:09.327Z,41.65
2022-12-25T23:28:59.245Z,48.13
2022-12-25T23:31:34.422Z,45.67
2022-12-25T23:34:02.621Z,58.70
2022-12-25T23:36:29.687Z,75.28
2022-12-25T23:38:59.239Z,49.90
2022-12-25T23:41:28.779Z,36.33
2022-12-25T23:43:55.841Z,38.40
2022-12-25T23:46:22.999Z,59.90
2022-12-25T23:48:50.143Z,49.17
2022-12-25T23:51:17.295Z,47.50
2022-12-25T23:53:44.340Z,101.00
2022-12-25T23:56:11.425Z,52.25
2022-12-25T23:58:38.720Z,42.28
